sensor_id;sensor_type;location;lat;lon;timestamp;pressure;altitude;pressure_sealevel;temperature;humidity
46638;BME280;32365;46.938;7.390;2022-12-24T07:21:43;95404.06;;;7.20;100.00
46638;BME280;32365;46.938;7.390;2022-12-24T07:24:11;95397.53;;;7.24;100.00
46638;BME280;32365;46.938;7.390;2022-12-24T07:26:37;95408.66;;;7.11;100.00
46638;BME280;32365;46.938;7.390;2022-12-24T07:29:04;95406.28;;;7.09;100.00
46638;BME280;32365;46.938;7.390;2022-12-24T07:31:30;95406.84;;;7.18;100.00
46638;BME280;32365;46.938;7.390;2022-12-24T07:33:57;95412.44;;;7.08;100.00
46638;BME280;32365;46.938;7.390;2022-12-24T07:36:23;95429.25;;;7.11;100.00
46638;BME280;32365;46.938;7.390;2022-12-24T07:38:51;95423.72;;;7.07;100.00
46638;BME280;32365;46.938;7.390;2022-12-24T07:41:17;95426.47;;;7.19;100.00
46638;BME280;32365;46.938;7.390;2022-12-24T07:43:44;95417.91;;;7.26;100.00
46638;BME280;32365;46.938;7.390;2022-12-24T07:46:10;95406.06;;;7.18;100.00
46638;BME280;32365;46.938;7.390;2022-12-24T07:48:37;95389.63;;;7.19;100.00
46638;BME280;32365;46.938;7.390;2022-12-24T07:51:03;95395.38;;;7.14;100.00
46638;BME280;32365;46.938;7.390;2022-12-24T07:53:30;95402.72;;;7.11;100.00
46638;BME280;32365;46.938;7.390;2022-12-24T07:55:58;95406.28;;;7.16;100.00
46638;BME280;32365;46.938;7.390;2022-12-24T07:58:24;95404.50;;;7.10;100.00
46638;BME280;32365;46.938;7.390;2022-12-24T08:00:54;95403.72;;;7.09;100.00
46638;BME280;32365;46.938;7.390;2022-12-24T08:03:20;95391.84;;;7.08;100.00
46638;BME280;32365;46.938;7.390;2022-12-24T08:05:47;95393.03;;;7.13;100.00
46638;BME280;32365;46.938;7.390;2022-12-24T08:08:13;95410.97;;;7.33;100.00
46638;BME280;32365;46.938;7.390;2022-12-24T08:10:40;95420.84;;;7.29;100.00
46638;BME280;32365;46.938;7.390;2022-12-24T08:13:08;95413.59;;;7.19;100.00
46638;BME280;32365;46.938;7.390;2022-12-24T08:15:34;95409.22;;;7.20;100.00
46638;BME280;32365;46.938;7.390;2022-12-24T08:18:02;95419.69;;;7.32;100.00
46638;BME280;32365;46.938;7.390;2022-12-24T08:20:28;95420.88;;;7.22;100.00
46638;BME280;32365;46.938;7.390;2022-12-24T08:22:55;95421.09;;;7.21;100.00
46638;BME280;32365;46.938;7.390;2022-12-24T08:25:21;95430.63;;;7.20;100.00
46638;BME280;32365;46.938;7.390;2022-12-24T08:27:47;95438.34;;;7.20;100.00
46638;BME280;32365;46.938;7.390;2022-12-24T08:30:15;95442.44;;;7.28;100.00
46638;BME280;32365;46.938;7.390;2022-12-24T08:32:42;95439.69;;;7.30;100.00
46638;BME280;32365;46.938;7.390;2022-12-24T08:35:08;95433.66;;;7.43;100.00
46638;BME280;32365;46.938;7.390;2022-12-24T08:37:35;95436.22;;;7.49;100.00
46638;BME280;32365;46.938;7.390;2022-12-24T08:40:01;95443.16;;;7.49;100.00
46638;BME280;32365;46.938;7.390;2022-12-24T08:42:27;95442.63;;;7.33;100.00
46638;BME280;32365;46.938;7.390;2022-12-24T08:44:54;95440.28;;;7.32;100.00
46638;BME280;32365;46.938;7.390;2022-12-24T08:47:22;95442.25;;;7.30;100.00
46638;BME280;32365;46.938;7.390;2022-12-24T08:49:48;95458.69;;;7.35;100.00
46638;BME280;32365;46.938;7.390;2022-12-24T08:52:14;95460.88;;;7.32;100.00
46638;BME280;32365;46.938;7.390;2022-12-24T08:54:41;95465.16;;;7.45;100.00
46638;BME280;32365;46.938;7.390;2022-12-24T08:57:07;95455.44;;;7.53;100.00
46638;BME280;32365;46.938;7.390;2022-12-24T08:59:33;95451.88;;;7.48;100.00
46638;BME280;32365;46.938;7.390;2022-12-24T09:02:00;95448.50;;;7.47;100.00
46638;BME280;32365;46.938;7.390;2022-12-24T09:04:28;95451.06;;;7.54;100.00
46638;BME280;32365;46.938;7.390;2022-12-24T09:06:54;95438.34;;;7.59;100.00
46638;BME280;32365;46.938;7.390;2022-12-24T09:09:20;95454.63;;;7.53;100.00
46638;BME280;32365;46.938;7.390;2022-12-24T09:11:47;95446.72;;;7.54;100.00
46638;BME280;32365;46.938;7.390;2022-12-24T09:14:13;95452.44;;;7.57;100.00
46638;BME280;32365;46.938;7.390;2022-12-24T09:16:39;95460.41;;;7.42;100.00
46638;BME280;32365;46.938;7.390;2022-12-24T09:19:06;95471.72;;;7.40;100.00
46638;BME280;32365;46.938;7.390;2022-12-24T09:21:34;95471.72;;;7.40;100.00
46638;BME280;32365;46.938;7.390;2022-12-24T09:24:02;95471.31;;;7.44;100.00
46638;BME280;32365;46.938;7.390;2022-12-24T09:26:29;95461.19;;;7.49;100.00
46638;BME280;32365;46.938;7.390;2022-12-24T09:28:56;95465.16;;;7.45;100.00
46638;BME280;32365;46.938;7.390;2022-12-24T09:31:22;95468.09;;;7.55;100.00
46638;BME280;32365;46.938;7.390;2022-12-24T09:33:49;95458.00;;;7.53;100.00
46638;BME280;32365;46.938;7.390;2022-12-24T09:36:16;95457.72;;;7.68;100.00
46638;BME280;32365;46.938;7.390;2022-12-24T09:38:44;95456.16;;;7.61;100.00
46638;BME280;32365;46.938;7.390;2022-12-24T09:41:11;95456.72;;;7.69;100.00
46638;BME280;32365;46.938;7.390;2022-12-24T09:43:38;95454.41;;;7.61;100.00
46638;BME280;32365;46.938;7.390;2022-12-24T09:46:06;95457.16;;;7.60;100.00
46638;BME280;32365;46.938;7.390;2022-12-24T09:48:36;95461.69;;;7.64;100.00
46638;BME280;32365;46.938;7.390;2022-12-24T19:11:05;95452.75;;;7.28;100.00
46638;BME280;32365;46.938;7.390;2022-12-24T19:13:31;95455.16;;;7.23;100.00
46638;BME280;32365;46.938;7.390;2022-12-24T19:15:58;95459.50;;;7.22;100.00
46638;BME280;32365;46.938;7.390;2022-12-24T19:18:24;95454.34;;;7.29;100.00
46638;BME280;32365;46.938;7.390;2022-12-24T19:20:51;95446.41;;;7.31;100.00
46638;BME280;32365;46.938;7.390;2022-12-24T19:23:17;95439.88;;;7.28;100.00
46638;BME280;32365;46.938;7.390;2022-12-24T19:25:43;95446.03;;;7.27;100.00
46638;BME280;32365;46.938;7.390;2022-12-24T19:28:11;95449.78;;;7.31;100.00
46638;BME280;32365;46.938;7.390;2022-12-24T19:30:38;95448.19;;;7.30;100.00
46638;BME280;32365;46.938;7.390;2022-12-24T19:33:06;95451.19;;;7.27;100.00
46638;BME280;32365;46.938;7.390;2022-12-24T19:35:32;95460.34;;;7.16;100.00
46638;BME280;32365;46.938;7.390;2022-12-24T19:37:58;95465.88;;;7.20;100.00
46638;BME280;32365;46.938;7.390;2022-12-24T19:40:25;95464.69;;;7.16;100.00
46638;BME280;32365;46.938;7.390;2022-12-24T19:42:52;95473.22;;;7.16;100.00
46638;BME280;32365;46.938;7.390;2022-12-24T19:45:21;95469.25;;;7.14;100.00
46638;BME280;32365;46.938;7.390;2022-12-24T19:47:47;95470.25;;;7.19;100.00
46638;BME280;32365;46.938;7.390;2022-12-24T19:50:14;95468.66;;;7.18;100.00
46638;BME280;32365;46.938;7.390;2022-12-24T19:52:41;95463.88;;;7.22;100.00
46638;BME280;32365;46.938;7.390;2022-12-24T19:55:08;95468.66;;;7.18;100.00
46638;BME280;32365;46.938;7.390;2022-12-24T19:57:34;95468.66;;;7.18;100.00
46638;BME280;32365;46.938;7.390;2022-12-24T20:00:02;95466.25;;;7.17;100.00
46638;BME280;32365;46.938;7.390;2022-12-24T20:02:30;95462.50;;;7.19;100.00
46638;BME280;32365;46.938;7.390;2022-12-24T20:04:57;95457.94;;;7.21;100.00
46638;BME280;32365;46.938;7.390;2022-12-24T20:07:24;95459.13;;;7.19;100.00
46638;BME280;32365;46.938;7.390;2022-12-24T20:09:50;95466.88;;;7.12;100.00
46638;BME280;32365;46.938;7.390;2022-12-24T20:12:16;95459.97;;;7.13;100.00
46638;BME280;32365;46.938;7.390;2022-12-24T20:14:43;95458.59;;;7.03;100.00
46638;BME280;32365;46.938;7.390;2022-12-24T20:17:10;95466.28;;;7.10;100.00
46638;BME280;32365;46.938;7.390;2022-12-24T20:19:40;95457.81;;;7.03;100.00
46638;BME280;32365;46.938;7.390;2022-12-24T20:22:06;95465.31;;;7.04;100.00
46638;BME280;32365;46.938;7.390;2022-12-24T20:24:32;95464.53;;;7.04;100.00
46638;BME280;32365;46.938;7.390;2022-12-24T20:26:59;95463.16;;;7.08;100.00
46638;BME280;32365;46.938;7.390;2022-12-24T20:29:25;95472.03;;;7.12;100.00
46638;BME280;32365;46.938;7.390;2022-12-24T20:31:52;95474.22;;;7.08;100.00
46638;BME280;32365;46.938;7.390;2022-12-24T20:34:18;95472.25;;;7.04;100.00
46638;BME280;32365;46.938;7.390;2022-12-24T20:36:46;95471.66;;;7.08;100.00
46638;BME280;32365;46.938;7.390;2022-12-24T20:39:12;95466.50;;;7.02;100.00
46638;BME280;32365;46.938;7.390;2022-12-24T20:41:39;95468.09;;;7.03;100.00
46638;BME280;32365;46.938;7.390;2022-12-24T20:44:05;95477.78;;;7.07;100.00
46638;BME280;32365;46.938;7.390;2022-12-24T20:46:31;95472.66;;;7.01;100.00
46638;BME280;32365;46.938;7.390;2022-12-24T20:48:59;95471.44;;;7.10;100.00
46638;BME280;32365;46.938;7.390;2022-12-24T20:51:26;95479.75;;;7.12;100.00
46638;BME280;32365;46.938;7.390;2022-12-24T20:53:55;95473.47;;;7.01;100.00
46638;BME280;32365;46.938;7.390;2022-12-24T20:56:21;95477.63;;;7.02;100.00
46638;BME280;32365;46.938;7.390;2022-12-24T20:58:48;95479.75;;;7.05;100.00
46638;BME280;32365;46.938;7.390;2022-12-24T21:01:15;95481.72;;;7.10;100.00
46638;BME280;32365;46.938;7.390;2022-12-24T21:03:42;95480.19;;;7.02;100.00
46638;BME280;32365;46.938;7.390;2022-12-24T21:06:09;95478.19;;;6.98;100.00
46638;BME280;32365;46.938;7.390;2022-12-24T21:08:35;95481.38;;;7.00;100.00
46638;BME280;32365;46.938;7.390;2022-12-24T21:11:03;95483.34;;;6.98;100.00
46638;BME280;32365;46.938;7.390;2022-12-24T21:13:47;95483.38;;;6.91;100.00
46638;BME280;32365;46.938;7.390;2022-12-24T21:16:14;95482.38;;;6.92;100.00
46638;BME280;32365;46.938;7.390;2022-12-24T21:18:40;95485.34;;;6.96;100.00
46638;BME280;32365;46.938;7.390;2022-12-24T21:21:06;95484.38;;;6.97;100.00
46638;BME280;32365;46.938;7.390;2022-12-24T21:23:33;95483.16;;;6.99;100.00
46638;BME280;32365;46.938;7.390;2022-12-24T21:26:00;95480.97;;;6.96;100.00
46638;BME280;32365;46.938;7.390;2022-12-24T21:28:28;95487.56;;;6.85;100.00
46638;BME280;32365;46.938;7.390;2022-12-24T21:30:54;95491.88;;;6.98;100.00
46638;BME280;32365;46.938;7.390;2022-12-24T21:33:21;95485.16;;;6.97;100.00
46638;BME280;32365;46.938;7.390;2022-12-24T21:35:47;95498.03;;;6.84;100.00
46638;BME280;32365;46.938;7.390;2022-12-24T21:38:13;95496.03;;;6.92;100.00
46638;BME280;32365;46.938;7.390;2022-12-24T21:40:40;95496.44;;;6.89;100.00
46638;BME280;32365;46.938;7.390;2022-12-24T21:43:06;95488.94;;;6.88;100.00
46638;BME280;32365;46.938;7.390;2022-12-24T21:45:34;95486.75;;;6.91;100.00
46638;BME280;32365;46.938;7.390;2022-12-24T21:48:04;95501.56;;;7.03;100.00
46638;BME280;32365;46.938;7.390;2022-12-24T21:50:52;95490.50;;;7.02;100.00
46638;BME280;32365;46.938;7.390;2022-12-24T21:53:20;95490.03;;;7.19;100.00
46638;BME280;32365;46.938;7.390;2022-12-24T21:56:06;95486.66;;;7.25;100.00
46638;BME280;32365;46.938;7.390;2022-12-24T21:58:33;95483.31;;;7.11;100.00
46638;BME280;32365;46.938;7.390;2022-12-24T22:01:05;95485.88;;;7.11;100.00
46638;BME280;32365;46.938;7.390;2022-12-24T22:03:31;95471.88;;;7.00;100.00
46638;BME280;32365;46.938;7.390;2022-12-24T22:05:58;95481.56;;;6.98;100.00
46638;BME280;32365;46.938;7.390;2022-12-24T22:08:24;95474.47;;;6.87;100.00
46638;BME280;32365;46.938;7.390;2022-12-24T22:11:10;95491.03;;;7.18;100.00
46638;BME280;32365;46.938;7.390;2022-12-24T22:13:55;95480.94;;;7.09;100.00
46638;BME280;32365;46.938;7.390;2022-12-24T22:16:22;95488.28;;;7.06;100.00
46638;BME280;32365;46.938;7.390;2022-12-24T22:18:49;95488.91;;;7.01;100.00
46638;BME280;32365;46.938;7.390;2022-12-24T22:21:16;95483.75;;;7.01;100.00
46638;BME280;32365;46.938;7.390;2022-12-24T22:23:42;95486.13;;;6.96;100.00
46638;BME280;32365;46.938;7.390;2022-12-24T22:26:09;95488.09;;;6.94;100.00
46638;BME280;32365;46.938;7.390;2022-12-24T22:28:35;95495.63;;;7.02;100.00
46638;BME280;32365;46.938;7.390;2022-12-24T22:31:02;95500.97;;;7.01;100.00
46638;BME280;32365;46.938;7.390;2022-12-24T22:33:29;95498.78;;;6.98;100.00
46638;BME280;32365;46.938;7.390;2022-12-24T22:36:02;95493.25;;;7.01;100.00
46638;BME280;32365;46.938;7.390;2022-12-24T22:38:29;95490.88;;;6.99;100.00
46638;BME280;32365;46.938;7.390;2022-12-24T22:40:55;95500.59;;;6.97;100.00
46638;BME280;32365;46.938;7.390;2022-12-24T22:43:21;95496.22;;;6.98;100.00
46638;BME280;32365;46.938;7.390;2022-12-24T22:45:48;95497.00;;;7.12;100.00
46638;BME280;32365;46.938;7.390;2022-12-24T22:48:14;95492.00;;;7.23;100.00
46638;BME280;32365;46.938;7.390;2022-12-24T22:50:42;95497.50;;;7.34;100.00
46638;BME280;32365;46.938;7.390;2022-12-24T22:53:08;95497.13;;;7.30;100.00
46638;BME280;32365;46.938;7.390;2022-12-24T22:55:34;95505.31;;;7.14;100.00
46638;BME280;32365;46.938;7.390;2022-12-24T22:58:01;95511.63;;;7.11;100.00
46638;BME280;32365;46.938;7.390;2022-12-24T23:00:35;95509.66;;;7.06;100.00
46638;BME280;32365;46.938;7.390;2022-12-24T23:03:03;95510.03;;;7.17;100.00
46638;BME280;32365;46.938;7.390;2022-12-24T23:05:29;95505.84;;;7.29;100.00
46638;BME280;32365;46.938;7.390;2022-12-24T23:07:57;95504.50;;;7.20;100.00
46638;BME280;32365;46.938;7.390;2022-12-24T23:10:23;95503.91;;;7.04;100.00
46638;BME280;32365;46.938;7.390;2022-12-24T23:12:49;95494.06;;;6.95;100.00
46638;BME280;32365;46.938;7.390;2022-12-24T23:15:35;95497.22;;;7.03;100.00
46638;BME280;32365;46.938;7.390;2022-12-24T23:18:02;95504.94;;;7.03;100.00
46638;BME280;32365;46.938;7.390;2022-12-24T23:20:28;95507.09;;;7.00;100.00
46638;BME280;32365;46.938;7.390;2022-12-24T23:22:56;95505.13;;;6.95;100.00
46638;BME280;32365;46.938;7.390;2022-12-24T23:25:22;95506.91;;;7.01;100.00
